createdAt,value
2019-01-30T00:00:27.785Z,59.00
2019-01-30T00:03:22.378Z,58.90
2019-01-30T00:06:17.244Z,59.00
2019-01-30T00:09:16.541Z,59.10
2019-01-30T00:12:11.167Z,59.20
2019-01-30T00:15:05.615Z,59.20
2019-01-30T00:18:00.497Z,59.30
2019-01-30T00:20:54.833Z,59.40
2019-01-30T00:23:49.577Z,59.50
2019-01-30T00:26:44.320Z,59.50
2019-01-30T00:29:38.925Z,59.50
2019-01-30T00:32:33.419Z,59.50
2019-01-30T00:35:27.863Z,59.40
2019-01-30T00:38:22.348Z,59.40
2019-01-30T00:41:16.855Z,59.20
2019-01-30T00:44:11.039Z,59.20
2019-01-30T00:47:15.456Z,59.20
2019-01-30T00:50:01.695Z,59.10
2019-01-30T00:52:56.277Z,59.00
2019-01-30T00:55:50.670Z,58.90
2019-01-30T00:58:45.068Z,58.80
2019-01-30T01:01:39.669Z,58.80
2019-01-30T01:04:34.516Z,58.80
2019-01-30T01:07:29.046Z,58.90
2019-01-30T01:10:23.779Z,58.90
2019-01-30T01:13:18.384Z,58.90
2019-01-30T01:16:13.035Z,59.00
2019-01-30T01:19:07.626Z,59.00
2019-01-30T01:22:03.093Z,59.00
2019-01-30T01:28:07.124Z,58.90
2019-01-30T01:31:04.459Z,58.90
2019-01-30T01:33:59.851Z,58.90
2019-01-30T01:36:55.101Z,58.90
2019-01-30T01:39:51.064Z,58.80
2019-01-30T01:42:44.886Z,58.80
2019-01-30T01:45:39.331Z,58.80
2019-01-30T01:48:34.043Z,58.80
2019-01-30T01:51:28.630Z,58.70
2019-01-30T01:54:23.301Z,58.60
2019-01-30T01:57:18.763Z,58.50
2019-01-30T02:00:16.700Z,58.50
2019-01-30T02:03:11.692Z,58.60
2019-01-30T02:06:06.133Z,58.60
2019-01-30T02:09:00.622Z,58.50
2019-01-30T02:11:55.930Z,58.60
2019-01-30T02:14:50.387Z,58.60
2019-01-30T02:17:44.860Z,58.50
2019-01-30T02:20:39.550Z,58.40
2019-01-30T02:23:34.001Z,58.40
2019-01-30T02:26:28.359Z,58.40
2019-01-30T02:29:22.759Z,58.30
2019-01-30T02:32:17.351Z,58.30
2019-01-30T02:35:11.737Z,58.30
2019-01-30T02:38:06.866Z,58.00
2019-01-30T02:41:01.667Z,57.80
2019-01-30T02:43:56.900Z,57.70
2019-01-30T02:46:51.673Z,57.40
2019-01-30T02:49:55.525Z,57.00
2019-01-30T02:52:53.846Z,56.80
2019-01-30T02:55:48.622Z,56.70
2019-01-30T02:58:43.280Z,56.40
2019-01-30T03:01:45.371Z,56.10
2019-01-30T03:04:39.918Z,55.70
2019-01-30T03:07:34.636Z,55.50
2019-01-30T03:10:29.140Z,55.30
2019-01-30T03:13:23.719Z,55.00
2019-01-30T03:16:18.537Z,54.80
2019-01-30T03:19:13.484Z,54.60
2019-01-30T03:22:08.322Z,54.30
2019-01-30T03:25:03.171Z,54.00
2019-01-30T03:27:57.999Z,53.80
2019-01-30T03:30:53.407Z,53.40
2019-01-30T03:33:49.258Z,53.20
2019-01-30T03:36:44.798Z,53.00
2019-01-30T03:39:43.934Z,52.60
2019-01-30T03:42:45.773Z,52.40
2019-01-30T03:45:54.562Z,52.10
2019-01-30T03:48:52.415Z,52.00
2019-01-30T03:51:54.580Z,51.90
2019-01-30T03:54:49.402Z,51.80
2019-01-30T03:57:45.389Z,51.70
2019-01-30T04:00:44.410Z,51.80
2019-01-30T04:03:45.122Z,51.70
2019-01-30T04:06:43.437Z,51.70
2019-01-30T04:09:38.750Z,51.60
2019-01-30T04:12:35.809Z,51.60
2019-01-30T04:15:30.448Z,51.50
2019-01-30T04:18:25.305Z,51.40
2019-01-30T04:21:23.000Z,51.30
2019-01-30T04:24:18.011Z,51.10
2019-01-30T04:27:19.617Z,50.90
2019-01-30T04:33:23.070Z,50.50
2019-01-30T04:36:18.608Z,50.40
2019-01-30T04:39:14.048Z,50.10
2019-01-30T04:42:11.970Z,50.10
2019-01-30T04:45:07.452Z,50.20
2019-01-30T04:48:07.404Z,50.00
2019-01-30T04:51:02.409Z,49.60
2019-01-30T04:53:56.952Z,49.40
2019-01-30T04:56:59.578Z,49.30
2019-01-30T04:59:54.484Z,49.00
2019-01-30T05:02:52.342Z,49.00
2019-01-30T05:05:46.794Z,49.10
2019-01-30T05:08:41.569Z,49.00
2019-01-30T05:11:55.241Z,48.80
2019-01-30T05:15:03.023Z,48.50
2019-01-30T05:17:56.208Z,48.30
2019-01-30T05:20:58.349Z,48.20
2019-01-30T05:24:06.914Z,47.70
2019-01-30T05:31:45.684Z,47.30
2019-01-30T05:34:40.955Z,47.20
2019-01-30T05:37:36.506Z,47.30
2019-01-30T05:40:42.184Z,46.90
2019-01-30T05:43:52.864Z,46.60
2019-01-30T05:47:16.700Z,46.60
2019-01-30T05:50:17.240Z,46.50
2019-01-30T05:53:12.934Z,46.30
2019-01-30T06:09:04.112Z,44.30
2019-01-30T06:12:23.977Z,43.50
2019-01-30T06:15:45.492Z,43.10
2019-01-30T06:18:52.606Z,43.10
2019-01-30T06:21:47.759Z,43.00
2019-01-30T06:25:05.215Z,42.70
2019-01-30T06:28:32.852Z,42.30
2019-01-30T06:34:50.390Z,41.80
2019-01-30T06:37:47.989Z,41.90
2019-01-30T06:41:27.124Z,41.90
2019-01-30T06:44:23.030Z,42.10
2019-01-30T06:47:29.534Z,41.60
2019-01-30T06:50:26.316Z,41.40
2019-01-30T06:53:30.204Z,41.40
2019-01-30T06:56:26.817Z,40.10
2019-01-30T06:59:22.584Z,39.80
2019-01-30T07:02:17.807Z,39.30
2019-01-30T07:05:13.807Z,39.40
2019-01-30T07:08:09.354Z,39.50
2019-01-30T07:11:10.600Z,40.10
2019-01-30T07:14:00.315Z,40.00
2019-01-30T07:17:15.248Z,38.90
2019-01-30T07:20:14.457Z,38.30
2019-01-30T07:23:13.278Z,37.40
2019-01-30T07:26:14.394Z,37.80
2019-01-30T07:29:09.056Z,38.10
2019-01-30T07:32:05.737Z,38.40
2019-01-30T07:35:05.260Z,38.50
2019-01-30T07:37:59.772Z,37.20
2019-01-30T07:40:55.108Z,36.60
2019-01-30T07:43:57.113Z,36.40
2019-01-30T07:46:52.327Z,36.40
2019-01-30T07:50:17.910Z,34.80
2019-01-30T07:53:18.300Z,33.50
2019-01-30T07:56:16.793Z,33.80
2019-01-30T07:59:11.831Z,33.80
2019-01-30T08:02:06.892Z,33.80
2019-01-30T08:05:08.055Z,33.90
2019-01-30T08:08:01.032Z,33.30
2019-01-30T08:10:56.016Z,33.60
2019-01-30T08:13:52.067Z,34.20
2019-01-30T08:16:48.059Z,34.40
2019-01-30T08:19:43.019Z,34.20
2019-01-30T08:22:44.964Z,34.80
2019-01-30T08:26:04.271Z,34.50
2019-01-30T08:28:58.982Z,34.40
2019-01-30T08:31:53.678Z,34.70
2019-01-30T08:34:50.704Z,34.90
2019-01-30T08:37:46.113Z,35.00
2019-01-30T08:40:41.240Z,34.60
2019-01-30T08:43:41.499Z,34.20
2019-01-30T08:51:07.283Z,34.20
2019-01-30T08:54:23.814Z,34.40
2019-01-30T08:57:21.612Z,34.50
2019-01-30T09:00:19.778Z,34.60
2019-01-30T09:03:15.224Z,34.90
2019-01-30T09:06:10.143Z,34.90
2019-01-30T09:09:06.145Z,34.80
2019-01-30T09:12:00.746Z,34.80
2019-01-30T09:14:55.479Z,34.60
2019-01-30T09:17:56.275Z,34.10
2019-01-30T09:20:50.673Z,33.00
2019-01-30T09:23:45.247Z,32.80
2019-01-30T09:26:40.242Z,31.20
2019-01-30T09:29:35.606Z,31.80
2019-01-30T09:32:30.486Z,32.20
2019-01-30T09:35:28.048Z,32.70
2019-01-30T09:38:23.474Z,32.60
2019-01-30T09:41:19.767Z,32.90
2019-01-30T09:44:17.447Z,33.10
2019-01-30T09:47:10.700Z,33.00
2019-01-30T09:50:07.455Z,32.70
2019-01-30T09:53:02.748Z,32.20
2019-01-30T09:55:59.747Z,31.50
2019-01-30T09:58:59.366Z,30.90
2019-01-30T10:01:52.471Z,30.60
2019-01-30T10:04:47.266Z,29.90
2019-01-30T10:07:42.329Z,29.40
2019-01-30T10:10:38.767Z,29.40
2019-01-30T10:13:34.423Z,29.40
2019-01-30T10:16:46.077Z,29.20
2019-01-30T10:20:01.544Z,29.20
2019-01-30T10:23:06.675Z,29.40
2019-01-30T10:29:05.924Z,29.30
2019-01-30T10:32:02.448Z,29.10
2019-01-30T10:41:37.281Z,29.60
2019-01-30T11:07:37.964Z,29.10
2019-01-30T11:10:37.566Z,29.30
2019-01-30T11:14:07.674Z,29.60
2019-01-30T11:17:04.052Z,29.80
2019-01-30T11:19:59.858Z,30.30
2019-01-30T11:23:06.034Z,30.60
2019-01-30T11:26:43.728Z,30.50
2019-01-30T11:43:48.056Z,31.10
2019-01-30T11:46:48.190Z,31.10
2019-01-30T11:49:53.974Z,31.20
2019-01-30T11:56:04.168Z,31.40
2019-01-30T11:59:22.517Z,31.50
2019-01-30T12:09:25.485Z,32.10
2019-01-30T12:12:19.382Z,32.40
2019-01-30T12:15:55.738Z,32.70
2019-01-30T12:18:48.030Z,32.70
2019-01-30T12:21:47.494Z,32.90
2019-01-30T12:24:59.188Z,33.30
2019-01-30T12:27:58.505Z,33.70
2019-01-30T12:30:58.747Z,34.00
2019-01-30T12:33:53.624Z,34.20
2019-01-30T12:36:48.871Z,34.50
2019-01-30T12:39:43.915Z,34.60
2019-01-30T12:42:39.123Z,34.70
2019-01-30T12:45:36.127Z,35.00
2019-01-30T12:48:31.586Z,35.50
2019-01-30T12:51:29.678Z,35.80
2019-01-30T12:58:03.582Z,36.00
2019-01-30T13:01:01.820Z,36.40
2019-01-30T13:03:56.656Z,36.60
2019-01-30T13:06:51.301Z,36.70
2019-01-30T13:09:46.384Z,36.70
2019-01-30T13:12:41.051Z,36.90
2019-01-30T13:15:35.964Z,37.20
2019-01-30T13:18:30.910Z,37.40
2019-01-30T13:21:27.453Z,37.60
2019-01-30T13:24:22.193Z,37.90
2019-01-30T13:27:17.475Z,38.10
2019-01-30T13:30:18.374Z,38.40
2019-01-30T13:33:15.404Z,38.50
2019-01-30T13:36:10.412Z,38.60
2019-01-30T13:39:05.743Z,38.70
2019-01-30T13:42:00.670Z,38.80
2019-01-30T13:44:56.016Z,38.90
2019-01-30T13:47:50.704Z,39.10
2019-01-30T13:50:45.479Z,39.30
2019-01-30T13:53:40.186Z,39.20
2019-01-30T13:56:34.544Z,39.30
2019-01-30T13:59:29.371Z,39.50
2019-01-30T14:02:24.487Z,39.70
2019-01-30T14:05:20.025Z,39.90
2019-01-30T14:08:18.429Z,40.30
2019-01-30T14:11:13.406Z,40.40
2019-01-30T14:14:08.420Z,40.50
2019-01-30T14:17:03.919Z,40.60
2019-01-30T14:20:49.388Z,40.60
2019-01-30T14:23:45.027Z,40.70
2019-01-30T14:30:15.272Z,40.70
2019-01-30T14:33:41.588Z,40.90
2019-01-30T14:37:09.472Z,41.10
2019-01-30T14:40:03.758Z,41.20
2019-01-30T14:42:58.583Z,41.10
2019-01-30T14:45:53.008Z,41.10
2019-01-30T14:48:47.825Z,41.20
2019-01-30T14:51:45.257Z,41.30
2019-01-30T14:54:37.683Z,41.30
2019-01-30T14:57:32.320Z,41.30
2019-01-30T15:00:30.434Z,41.40
2019-01-30T15:03:25.277Z,41.50
2019-01-30T15:06:19.915Z,41.70
2019-01-30T15:09:15.431Z,41.90
2019-01-30T15:12:10.370Z,42.00
2019-01-30T15:15:05.383Z,42.10
2019-01-30T15:18:00.466Z,42.20
2019-01-30T15:20:57.552Z,42.20
2019-01-30T15:23:52.416Z,42.20
2019-01-30T15:26:47.100Z,42.20
2019-01-30T15:29:41.945Z,42.20
2019-01-30T15:32:36.371Z,42.30
2019-01-30T15:35:33.765Z,42.40
2019-01-30T15:38:26.534Z,42.50
2019-01-30T15:41:21.391Z,42.70
2019-01-30T15:44:16.841Z,43.00
2019-01-30T15:47:11.555Z,43.10
2019-01-30T15:50:06.894Z,43.20
2019-01-30T15:53:03.744Z,43.40
2019-01-30T15:55:58.772Z,43.50
2019-01-30T15:58:53.901Z,43.50
2019-01-30T16:01:50.012Z,43.50
2019-01-30T16:04:44.427Z,43.70
2019-01-30T16:07:39.051Z,43.90
2019-01-30T16:10:33.892Z,44.00
2019-01-30T16:13:29.076Z,44.30
2019-01-30T16:16:23.782Z,44.40
2019-01-30T16:19:18.365Z,44.60
2019-01-30T16:22:13.302Z,44.90
2019-01-30T16:25:09.461Z,45.00
2019-01-30T16:28:03.981Z,45.10
2019-01-30T16:30:59.308Z,45.10
2019-01-30T16:33:54.082Z,45.10
2019-01-30T16:36:49.306Z,45.20
2019-01-30T16:39:44.469Z,45.40
2019-01-30T16:42:39.706Z,45.60
2019-01-30T16:45:36.152Z,45.60
2019-01-30T16:48:31.130Z,45.50
2019-01-30T16:51:25.870Z,45.70
2019-01-30T16:54:21.487Z,45.90
2019-01-30T16:57:16.550Z,46.00
2019-01-30T17:00:14.526Z,46.10
2019-01-30T17:03:09.472Z,46.10
2019-01-30T17:06:07.439Z,46.10
2019-01-30T17:08:59.445Z,46.10
2019-01-30T17:11:55.072Z,46.20
2019-01-30T17:14:49.851Z,46.20
2019-01-30T17:17:45.007Z,46.20
2019-01-30T17:20:41.148Z,46.40
2019-01-30T17:23:36.238Z,46.60
2019-01-30T17:26:31.259Z,46.70
2019-01-30T17:29:29.336Z,46.90
2019-01-30T17:32:24.169Z,47.10
2019-01-30T17:35:19.270Z,47.00
2019-01-30T17:38:14.662Z,47.10
2019-01-30T17:41:09.798Z,47.20
2019-01-30T17:44:03.993Z,47.00
2019-01-30T17:46:58.597Z,47.00
2019-01-30T17:49:52.919Z,46.70
2019-01-30T17:52:47.052Z,46.50
2019-01-30T17:55:41.460Z,46.60
2019-01-30T17:58:36.192Z,46.50
2019-01-30T18:01:30.601Z,46.40
2019-01-30T18:04:25.300Z,46.30
2019-01-30T18:07:22.668Z,46.10
2019-01-30T18:10:17.900Z,46.20
2019-01-30T18:13:12.598Z,46.20
2019-01-30T18:16:07.181Z,46.10
2019-01-30T18:19:01.786Z,46.10
2019-01-30T18:21:56.540Z,46.10
2019-01-30T18:24:51.217Z,46.10
2019-01-30T18:27:45.890Z,46.20
2019-01-30T18:30:40.575Z,46.20
2019-01-30T18:33:35.544Z,46.30
2019-01-30T18:36:40.335Z,46.20
2019-01-30T18:39:24.927Z,46.20
2019-01-30T18:42:19.641Z,46.30
2019-01-30T18:45:16.671Z,46.30
2019-01-30T18:48:11.393Z,46.20
2019-01-30T18:51:05.728Z,46.20
2019-01-30T18:54:00.594Z,46.30
2019-01-30T18:56:55.892Z,46.30
2019-01-30T18:59:50.471Z,46.40
2019-01-30T19:02:44.945Z,46.30
2019-01-30T19:05:39.443Z,46.20
2019-01-30T19:08:33.907Z,46.20
2019-01-30T19:11:28.965Z,46.20
2019-01-30T19:14:23.678Z,46.20
2019-01-30T19:17:18.035Z,46.30
2019-01-30T19:20:14.978Z,46.30
2019-01-30T19:23:12.445Z,46.40
2019-01-30T19:26:07.122Z,46.40
2019-01-30T19:29:01.420Z,46.60
2019-01-30T19:31:56.134Z,46.70
2019-01-30T19:34:50.572Z,46.70
2019-01-30T19:37:45.025Z,46.70
2019-01-30T19:40:39.727Z,46.80
2019-01-30T19:43:34.382Z,46.80
2019-01-30T19:46:28.991Z,46.80
2019-01-30T19:49:23.515Z,46.90
2019-01-30T19:52:17.998Z,47.10
2019-01-30T19:55:12.656Z,47.10
2019-01-30T19:58:07.367Z,47.10
2019-01-30T20:01:02.463Z,47.10
2019-01-30T20:03:56.614Z,47.10
2019-01-30T20:06:51.157Z,47.30
2019-01-30T20:09:45.523Z,47.30
2019-01-30T20:12:40.057Z,47.40
2019-01-30T20:15:34.874Z,47.40
2019-01-30T20:18:29.337Z,47.40
2019-01-30T20:21:23.690Z,47.40
2019-01-30T20:24:18.019Z,47.60
2019-01-30T20:27:12.376Z,47.70
2019-01-30T20:30:07.316Z,47.70
2019-01-30T20:33:02.072Z,47.80
2019-01-30T20:35:56.381Z,48.10
2019-01-30T20:38:51.133Z,48.20
2019-01-30T20:41:45.587Z,48.10
2019-01-30T20:44:40.218Z,48.10
2019-01-30T20:47:34.956Z,48.30
2019-01-30T20:50:31.444Z,48.40
2019-01-30T20:53:25.832Z,48.70
2019-01-30T20:56:20.266Z,48.70
2019-01-30T20:59:14.796Z,48.70
2019-01-30T21:02:10.174Z,48.70
2019-01-30T21:05:04.893Z,48.80
2019-01-30T21:08:03.025Z,48.80
2019-01-30T21:10:57.512Z,49.00
2019-01-30T21:13:52.206Z,49.10
2019-01-30T21:16:46.462Z,49.20
2019-01-30T21:19:41.102Z,49.30
2019-01-30T21:22:35.340Z,49.30
2019-01-30T21:25:30.149Z,49.50
2019-01-30T21:28:24.923Z,49.60
2019-01-30T21:31:19.249Z,49.60
2019-01-30T21:34:14.096Z,49.60
2019-01-30T21:37:08.538Z,49.70
2019-01-30T21:40:02.895Z,49.80
2019-01-30T21:42:57.262Z,49.90
2019-01-30T21:45:51.954Z,50.00
2019-01-30T21:48:46.385Z,50.10
2019-01-30T21:51:40.879Z,50.30
2019-01-30T21:54:35.497Z,50.30
2019-01-30T21:57:32.188Z,50.40
2019-01-30T22:00:31.262Z,50.60
2019-01-30T22:03:26.146Z,50.70
2019-01-30T22:06:20.899Z,50.90
2019-01-30T22:09:15.661Z,51.10
2019-01-30T22:12:10.419Z,51.30
2019-01-30T22:15:04.968Z,51.40
2019-01-30T22:17:59.668Z,51.70
2019-01-30T22:20:53.984Z,51.70
2019-01-30T22:23:48.624Z,51.80
2019-01-30T22:26:43.274Z,51.80
2019-01-30T22:29:38.901Z,51.70
2019-01-30T22:32:33.846Z,51.90
2019-01-30T22:35:28.247Z,52.20
2019-01-30T22:38:22.713Z,52.30
2019-01-30T22:41:17.128Z,52.50
2019-01-30T22:44:11.800Z,52.60
2019-01-30T22:47:06.375Z,52.50
2019-01-30T22:50:00.845Z,52.50
2019-01-30T22:52:55.617Z,52.50
2019-01-30T22:55:49.937Z,52.60
2019-01-30T22:58:44.304Z,52.50
2019-01-30T23:02:01.397Z,52.60
2019-01-30T23:05:17.690Z,52.60
2019-01-30T23:08:33.614Z,52.50
2019-01-30T23:12:03.848Z,52.40
2019-01-30T23:15:05.070Z,52.40
2019-01-30T23:18:54.065Z,52.40
2019-01-30T23:21:58.528Z,52.40
2019-01-30T23:25:43.852Z,52.60
2019-01-30T23:29:28.192Z,52.70
2019-01-30T23:32:54.178Z,52.80
2019-01-30T23:36:33.409Z,52.90
2019-01-30T23:40:08.784Z,53.10
2019-01-30T23:43:29.314Z,53.30
2019-01-30T23:46:43.792Z,53.40
2019-01-30T23:50:29.701Z,53.40
2019-01-30T23:53:53.753Z,53.40
2019-01-30T23:57:22.972Z,53.50
